createdAt,value
2023-06-02T00:01:38.057Z,14.56
2023-06-02T00:04:06.172Z,14.57
2023-06-02T00:06:35.803Z,14.58
2023-06-02T00:09:06.148Z,14.56
2023-06-02T00:11:37.836Z,14.51
2023-06-02T00:14:06.404Z,14.47
2023-06-02T00:16:43.485Z,14.45
2023-06-02T00:19:13.672Z,14.44
2023-06-02T00:21:42.667Z,14.44
2023-06-02T00:24:10.407Z,14.42
2023-06-02T00:26:38.805Z,14.41
2023-06-02T00:29:06.149Z,14.42
2023-06-02T00:31:33.539Z,14.43
2023-06-02T00:34:01.001Z,14.43
2023-06-02T00:36:28.366Z,14.42
2023-06-02T00:38:55.771Z,14.43
2023-06-02T00:42:07.681Z,14.46
2023-06-02T00:44:35.313Z,14.45
2023-06-02T00:47:02.585Z,14.47
2023-06-02T00:49:30.028Z,14.48
2023-06-02T00:51:57.417Z,14.49
2023-06-02T00:54:24.685Z,14.51
2023-06-02T00:56:52.603Z,14.53
2023-06-02T00:59:20.856Z,14.54
2023-06-02T01:01:49.746Z,14.54
2023-06-02T01:04:17.950Z,14.55
2023-06-02T01:06:45.520Z,14.55
2023-06-02T01:09:14.429Z,14.55
2023-06-02T01:11:41.732Z,14.56
2023-06-02T01:14:10.448Z,14.58
2023-06-02T01:16:40.288Z,14.58
2023-06-02T01:19:08.105Z,14.57
2023-06-02T01:21:38.660Z,14.57
2023-06-02T01:24:07.575Z,14.56
2023-06-02T01:26:38.094Z,14.54
2023-06-02T01:29:05.430Z,14.51
2023-06-02T01:31:39.851Z,14.48
2023-06-02T01:34:30.566Z,14.45
2023-06-02T01:36:58.810Z,14.42
2023-06-02T01:39:28.173Z,14.39
2023-06-02T01:41:55.413Z,14.38
2023-06-02T01:44:22.964Z,14.36
2023-06-02T01:46:50.509Z,14.35
2023-06-02T01:49:18.381Z,14.35
2023-06-02T01:51:45.945Z,14.35
2023-06-02T01:54:13.326Z,14.34
2023-06-02T01:56:40.607Z,14.34
2023-06-02T01:59:08.504Z,14.33
2023-06-02T02:01:37.833Z,14.32
2023-06-02T02:04:05.548Z,14.32
2023-06-02T02:06:33.465Z,14.33
2023-06-02T02:09:01.149Z,14.34
2023-06-02T02:11:28.548Z,14.35
2023-06-02T02:13:56.042Z,14.36
2023-06-02T02:16:23.494Z,14.37
2023-06-02T02:18:53.880Z,14.39
2023-06-02T02:21:21.763Z,14.41
2023-06-02T02:23:49.305Z,14.44
2023-06-02T02:26:17.521Z,14.44
2023-06-02T02:28:45.465Z,14.46
2023-06-02T02:31:13.262Z,14.47
2023-06-02T02:33:40.683Z,14.49
2023-06-02T02:36:09.667Z,14.50
2023-06-02T02:38:37.856Z,14.49
2023-06-02T02:41:05.363Z,14.50
2023-06-02T02:43:32.870Z,14.50
2023-06-02T02:46:00.780Z,14.53
2023-06-02T02:48:28.570Z,14.55
2023-06-02T02:50:56.408Z,14.59
2023-06-02T02:53:24.678Z,14.62
2023-06-02T02:55:52.665Z,14.65
2023-06-02T02:58:21.282Z,14.68
2023-06-02T03:00:49.257Z,14.73
2023-06-02T03:03:17.619Z,14.77
2023-06-02T03:05:46.483Z,14.82
2023-06-02T03:08:14.305Z,14.86
2023-06-02T03:10:42.469Z,14.91
2023-06-02T03:13:09.774Z,14.96
2023-06-02T03:15:37.591Z,15.02
2023-06-02T03:18:05.053Z,15.08
2023-06-02T03:20:33.259Z,15.13
2023-06-02T03:23:01.029Z,15.18
2023-06-02T03:25:28.926Z,15.24
2023-06-02T03:27:56.535Z,15.29
2023-06-02T03:30:25.113Z,15.34
2023-06-02T03:32:56.033Z,15.40
2023-06-02T03:35:23.662Z,15.45
2023-06-02T03:37:51.045Z,15.51
2023-06-02T03:40:18.405Z,15.57
2023-06-02T03:42:45.770Z,15.63
2023-06-02T03:45:13.347Z,15.69
2023-06-02T03:47:41.628Z,15.75
2023-06-02T03:50:11.057Z,15.81
2023-06-02T03:52:38.523Z,15.87
2023-06-02T03:55:06.614Z,15.94
2023-06-02T04:00:12.136Z,16.09
2023-06-02T04:02:42.959Z,16.14
2023-06-02T04:05:15.634Z,16.21
2023-06-02T04:07:43.598Z,16.28
2023-06-02T04:10:11.755Z,16.36
2023-06-02T04:12:39.155Z,16.44
2023-06-02T04:15:07.957Z,16.52
2023-06-02T04:17:35.391Z,16.59
2023-06-02T04:20:04.008Z,16.66
2023-06-02T04:22:35.422Z,16.76
2023-06-02T04:25:03.042Z,16.83
2023-06-02T04:27:30.572Z,16.91
2023-06-02T04:29:59.338Z,16.99
2023-06-02T04:32:27.259Z,17.08
2023-06-02T04:34:54.579Z,17.16
2023-06-02T04:37:21.956Z,17.25
2023-06-02T04:39:53.357Z,17.34
2023-06-02T04:42:22.364Z,17.43
2023-06-02T04:44:52.611Z,17.52
2023-06-02T04:47:20.324Z,17.61
2023-06-02T04:49:47.979Z,17.71
2023-06-02T04:52:15.302Z,17.80
2023-06-02T04:54:43.549Z,17.88
2023-06-02T04:57:11.039Z,17.97
2023-06-02T04:59:38.551Z,18.06
2023-06-02T05:02:08.931Z,18.16
2023-06-02T05:04:37.007Z,18.28
2023-06-02T05:07:06.080Z,18.40
2023-06-02T05:09:33.409Z,18.52
2023-06-02T05:12:01.196Z,18.63
2023-06-02T05:14:28.879Z,18.74
2023-06-02T05:16:56.903Z,18.86
2023-06-02T05:19:24.265Z,19.00
2023-06-02T05:21:52.027Z,19.11
2023-06-02T05:24:19.488Z,19.24
2023-06-02T05:26:46.875Z,19.35
2023-06-02T05:29:14.392Z,19.47
2023-06-02T05:31:41.810Z,19.59
2023-06-02T05:34:09.312Z,19.72
2023-06-02T05:36:36.887Z,19.83
2023-06-02T05:39:04.499Z,19.97
2023-06-02T05:41:31.883Z,20.09
2023-06-02T05:43:59.405Z,20.21
2023-06-02T05:46:28.032Z,20.32
2023-06-02T05:48:55.700Z,20.42
2023-06-02T05:51:23.166Z,20.53
2023-06-02T05:53:51.430Z,20.65
2023-06-02T05:56:19.572Z,20.77
2023-06-02T05:58:48.181Z,20.90
2023-06-02T06:01:15.811Z,21.01
2023-06-02T06:03:43.447Z,21.12
2023-06-02T06:06:11.362Z,21.24
2023-06-02T06:08:38.698Z,21.37
2023-06-02T06:11:06.077Z,21.47
2023-06-02T06:13:33.910Z,21.59
2023-06-02T06:16:02.218Z,21.68
2023-06-02T06:18:29.980Z,21.77
2023-06-02T06:20:57.359Z,21.87
2023-06-02T06:23:26.173Z,21.98
2023-06-02T06:25:54.031Z,22.08
2023-06-02T06:28:22.228Z,22.18
2023-06-02T06:30:50.368Z,22.26
2023-06-02T06:33:18.018Z,22.36
2023-06-02T06:35:45.632Z,22.44
2023-06-02T06:38:13.617Z,22.53
2023-06-02T06:40:40.985Z,22.61
2023-06-02T06:43:22.836Z,22.70
2023-06-02T06:46:17.709Z,22.83
2023-06-02T06:48:47.863Z,22.90
2023-06-02T06:51:16.867Z,22.99
2023-06-02T06:53:44.256Z,23.07
2023-06-02T06:56:11.553Z,23.14
2023-06-02T06:58:38.931Z,23.22
2023-06-02T07:01:06.415Z,23.30
2023-06-02T07:03:33.828Z,23.39
2023-06-02T07:06:02.089Z,23.48
2023-06-02T07:08:31.210Z,23.57
2023-06-02T07:10:58.611Z,23.67
2023-06-02T07:13:26.585Z,23.80
2023-06-02T07:15:53.940Z,23.92
2023-06-02T07:18:22.259Z,24.01
2023-06-02T07:20:49.800Z,24.09
2023-06-02T07:23:17.442Z,24.18
2023-06-02T07:25:44.770Z,24.26
2023-06-02T07:28:13.348Z,24.31
2023-06-02T07:31:01.305Z,24.37
2023-06-02T07:33:36.075Z,24.47
2023-06-02T07:36:03.572Z,24.54
2023-06-02T07:38:31.063Z,24.61
2023-06-02T07:40:58.344Z,24.64
2023-06-02T07:43:25.857Z,24.68
2023-06-02T07:45:53.128Z,24.72
2023-06-02T07:48:20.432Z,24.79
2023-06-02T07:50:48.117Z,24.85
2023-06-02T07:53:15.839Z,24.92
2023-06-02T07:55:44.538Z,24.99
2023-06-02T07:58:12.270Z,25.06
2023-06-02T08:00:39.756Z,25.09
2023-06-02T08:03:08.390Z,25.10
2023-06-02T08:05:36.500Z,25.17
2023-06-02T08:08:03.785Z,25.26
2023-06-02T08:10:31.593Z,25.32
2023-06-02T08:12:59.000Z,25.38
2023-06-02T08:15:26.368Z,25.46
2023-06-02T08:17:53.789Z,25.56
2023-06-02T08:20:21.513Z,25.65
2023-06-02T08:22:49.217Z,25.73
2023-06-02T08:25:17.640Z,25.81
2023-06-02T08:27:46.160Z,25.87
2023-06-02T08:30:14.231Z,25.90
2023-06-02T08:32:41.610Z,25.91
2023-06-02T08:35:09.141Z,25.88
2023-06-02T08:37:36.488Z,25.82
2023-06-02T08:40:05.811Z,25.77
2023-06-02T08:42:33.448Z,25.76
2023-06-02T08:45:01.238Z,25.79
2023-06-02T08:47:30.229Z,25.85
2023-06-02T08:49:57.806Z,25.92
2023-06-02T08:52:27.305Z,25.98
2023-06-02T08:54:56.174Z,26.01
2023-06-02T08:57:24.175Z,26.02
2023-06-02T08:59:51.801Z,26.02
2023-06-02T09:02:20.327Z,26.04
2023-06-02T09:04:47.994Z,26.08
2023-06-02T09:07:16.662Z,26.13
2023-06-02T09:09:56.015Z,26.17
2023-06-02T09:12:25.206Z,26.20
2023-06-02T09:15:10.646Z,26.26
2023-06-02T09:17:38.481Z,26.29
2023-06-02T09:20:10.337Z,26.32
2023-06-02T09:22:56.154Z,26.35
2023-06-02T09:25:33.890Z,26.40
2023-06-02T09:28:01.797Z,26.44
2023-06-02T09:30:29.558Z,26.51
2023-06-02T09:33:02.316Z,26.57
2023-06-02T09:35:43.229Z,26.66
2023-06-02T09:38:15.135Z,26.77
2023-06-02T09:40:42.853Z,26.84
2023-06-02T09:43:11.534Z,26.88
2023-06-02T09:45:48.263Z,26.91
2023-06-02T09:48:19.607Z,26.93
2023-06-02T09:50:47.067Z,26.93
2023-06-02T09:53:15.445Z,26.91
2023-06-02T09:55:43.122Z,26.86
2023-06-02T09:58:10.623Z,26.84
2023-06-02T10:00:38.006Z,26.87
2023-06-02T10:03:06.171Z,26.90
2023-06-02T10:05:34.409Z,26.94
2023-06-02T10:08:24.768Z,27.02
2023-06-02T10:11:24.031Z,27.10
2023-06-02T10:14:08.153Z,27.14
2023-06-02T10:16:47.874Z,27.14
2023-06-02T10:19:40.624Z,27.11
2023-06-02T10:22:17.726Z,27.08
2023-06-02T10:25:17.633Z,27.08
2023-06-02T10:27:45.627Z,27.13
2023-06-02T10:30:12.983Z,27.16
2023-06-02T10:32:58.822Z,27.23
2023-06-02T10:35:59.187Z,27.33
2023-06-02T10:38:33.077Z,27.40
2023-06-02T10:41:01.195Z,27.34
2023-06-02T10:43:28.706Z,27.26
2023-06-02T10:46:16.636Z,27.24
2023-06-02T10:48:44.157Z,27.26
2023-06-02T10:51:11.820Z,27.31
2023-06-02T10:54:05.683Z,27.39
2023-06-02T10:56:36.422Z,27.49
2023-06-02T10:59:04.202Z,27.57
2023-06-02T11:01:51.347Z,27.63
2023-06-02T11:04:28.846Z,27.69
2023-06-02T11:07:24.638Z,27.75
2023-06-02T11:09:57.137Z,27.81
2023-06-02T11:13:00.079Z,27.88
2023-06-02T11:15:27.719Z,27.97
2023-06-02T11:17:54.965Z,28.05
2023-06-02T11:20:32.349Z,28.10
2023-06-02T11:23:03.973Z,28.16
2023-06-02T11:25:31.391Z,28.19
2023-06-02T11:27:58.706Z,28.23
2023-06-02T11:30:26.720Z,28.26
2023-06-02T11:32:54.286Z,28.22
2023-06-02T11:35:24.457Z,28.13
2023-06-02T11:38:05.995Z,28.02
2023-06-02T11:40:35.751Z,27.91
2023-06-02T11:43:04.594Z,27.82
2023-06-02T11:45:32.152Z,27.79
2023-06-02T11:48:06.736Z,27.80
2023-06-02T11:50:34.667Z,27.83
2023-06-02T11:53:02.087Z,27.87
2023-06-02T11:55:30.741Z,27.89
2023-06-02T11:58:18.802Z,27.89
2023-06-02T12:00:46.114Z,27.88
2023-06-02T12:03:13.889Z,27.85
2023-06-02T12:05:46.048Z,27.78
2023-06-02T12:08:21.870Z,27.69
2023-06-02T12:10:50.034Z,27.59
2023-06-02T12:13:28.448Z,27.51
2023-06-02T12:15:56.178Z,27.47
2023-06-02T12:18:30.999Z,27.45
2023-06-02T12:20:59.500Z,27.43
2023-06-02T12:23:45.900Z,27.41
2023-06-02T12:26:14.020Z,27.38
2023-06-02T12:28:41.289Z,27.35
2023-06-02T12:31:08.784Z,27.32
2023-06-02T12:33:36.283Z,27.31
2023-06-02T12:36:04.266Z,27.28
2023-06-02T12:38:33.773Z,27.23
2023-06-02T12:41:03.931Z,27.19
2023-06-02T12:43:31.600Z,27.15
2023-06-02T12:45:58.907Z,27.11
2023-06-02T12:48:27.012Z,27.04
2023-06-02T12:50:54.257Z,26.96
2023-06-02T12:53:21.821Z,26.88
2023-06-02T12:55:49.242Z,26.81
2023-06-02T12:58:16.521Z,26.74
2023-06-02T13:00:44.607Z,26.67
2023-06-02T13:03:15.819Z,26.59
2023-06-02T13:05:59.304Z,26.37
2023-06-02T13:08:27.770Z,25.96
2023-06-02T13:10:58.135Z,25.49
2023-06-02T13:13:26.449Z,24.96
2023-06-02T13:15:54.069Z,24.34
2023-06-02T13:18:22.610Z,23.68
2023-06-02T13:20:51.693Z,23.15
2023-06-02T13:23:19.846Z,22.75
2023-06-02T13:25:47.348Z,22.42
2023-06-02T13:28:14.721Z,22.12
2023-06-02T13:30:42.354Z,21.77
2023-06-02T13:33:09.852Z,21.42
2023-06-02T13:35:39.249Z,21.11
2023-06-02T13:38:06.760Z,20.84
2023-06-02T13:40:34.086Z,20.59
2023-06-02T13:43:01.369Z,20.33
2023-06-02T13:45:28.693Z,20.04
2023-06-02T13:47:56.406Z,19.82
2023-06-02T13:50:23.866Z,19.48
2023-06-02T13:52:51.470Z,19.06
2023-06-02T13:55:19.081Z,18.74
2023-06-02T13:57:46.557Z,18.54
2023-06-02T14:00:14.091Z,18.40
2023-06-02T14:02:41.521Z,18.30
2023-06-02T14:05:09.715Z,18.27
2023-06-02T14:07:37.095Z,18.25
2023-06-02T14:10:04.876Z,18.25
2023-06-02T14:12:33.057Z,18.24
2023-06-02T14:15:00.507Z,18.24
2023-06-02T14:17:27.927Z,18.24
2023-06-02T14:19:55.437Z,18.21
2023-06-02T14:22:24.449Z,18.18
2023-06-02T14:24:52.061Z,18.14
2023-06-02T14:27:19.385Z,18.12
2023-06-02T14:29:46.738Z,18.11
2023-06-02T14:32:14.064Z,18.08
2023-06-02T14:34:41.395Z,18.06
2023-06-02T14:37:09.387Z,18.01
2023-06-02T14:39:37.319Z,17.96
2023-06-02T14:42:04.742Z,17.90
2023-06-02T14:44:32.322Z,17.85
2023-06-02T14:46:59.738Z,17.80
2023-06-02T14:49:27.324Z,17.79
2023-06-02T14:51:54.818Z,17.84
2023-06-02T14:54:23.157Z,17.90
2023-06-02T14:56:50.833Z,17.95
2023-06-02T14:59:19.381Z,18.00
2023-06-02T15:01:46.766Z,18.01
2023-06-02T15:04:14.198Z,17.98
2023-06-02T15:06:41.824Z,17.95
2023-06-02T15:09:09.098Z,17.91
2023-06-02T15:11:36.398Z,17.86
2023-06-02T15:14:03.775Z,17.79
2023-06-02T15:16:32.756Z,17.73
2023-06-02T15:19:00.363Z,17.68
2023-06-02T15:21:27.772Z,17.67
2023-06-02T15:23:55.085Z,17.65
2023-06-02T15:26:22.466Z,17.62
2023-06-02T15:28:49.780Z,17.56
2023-06-02T15:31:17.219Z,17.46
2023-06-02T15:33:46.369Z,17.34
2023-06-02T15:36:13.838Z,17.20
2023-06-02T15:38:41.375Z,17.06
2023-06-02T15:41:08.691Z,16.94
2023-06-02T15:43:36.345Z,16.86
2023-06-02T15:46:04.456Z,16.79
2023-06-02T15:48:31.962Z,16.70
2023-06-02T15:50:59.257Z,16.62
2023-06-02T15:53:26.513Z,16.57
2023-06-02T15:55:53.785Z,16.50
2023-06-02T15:58:21.650Z,16.41
2023-06-02T16:00:48.999Z,16.33
2023-06-02T16:03:16.296Z,16.29
2023-06-02T16:05:43.680Z,16.28
2023-06-02T16:08:11.254Z,16.28
2023-06-02T16:10:38.615Z,16.29
2023-06-02T16:13:06.021Z,16.34
2023-06-02T16:17:00.772Z,16.40
2023-06-02T16:19:28.433Z,16.37
2023-06-02T16:21:56.767Z,16.37
2023-06-02T16:24:24.184Z,16.35
2023-06-02T16:26:51.914Z,16.34
2023-06-02T16:29:19.230Z,16.34
2023-06-02T16:31:46.598Z,16.35
2023-06-02T16:34:14.082Z,16.35
2023-06-02T16:36:41.722Z,16.35
2023-06-02T16:39:10.785Z,16.36
2023-06-02T16:41:38.369Z,16.39
2023-06-02T16:44:05.640Z,16.42
2023-06-02T16:46:33.105Z,16.42
2023-06-02T16:49:00.778Z,16.41
2023-06-02T16:51:28.124Z,16.41
2023-06-02T16:53:55.557Z,16.41
2023-06-02T16:56:23.123Z,16.44
2023-06-02T16:58:50.437Z,16.47
2023-06-02T17:01:17.878Z,16.53
2023-06-02T17:03:45.516Z,16.58
2023-06-02T17:06:12.782Z,16.61
2023-06-02T17:08:40.066Z,16.68
2023-06-02T17:11:07.619Z,16.73
2023-06-02T17:13:34.968Z,16.77
2023-06-02T17:16:02.536Z,16.81
2023-06-02T17:18:30.166Z,16.84
2023-06-02T17:20:57.409Z,16.88
2023-06-02T17:23:25.020Z,16.91
2023-06-02T17:25:52.420Z,16.95
2023-06-02T17:28:19.762Z,16.97
2023-06-02T17:30:47.050Z,17.00
2023-06-02T17:33:15.067Z,17.03
2023-06-02T17:35:42.738Z,17.07
2023-06-02T17:38:10.309Z,17.10
2023-06-02T17:40:38.787Z,17.13
2023-06-02T17:43:06.263Z,17.16
2023-06-02T17:45:33.516Z,17.18
2023-06-02T17:48:00.990Z,17.20
2023-06-02T17:50:28.853Z,17.21
2023-06-02T17:52:56.411Z,17.23
2023-06-02T17:55:23.895Z,17.24
2023-06-02T17:57:51.311Z,17.24
2023-06-02T18:00:18.851Z,17.25
2023-06-02T18:02:46.662Z,17.27
2023-06-02T18:05:14.051Z,17.29
2023-06-02T18:07:41.607Z,17.30
2023-06-02T18:10:09.651Z,17.31
2023-06-02T18:12:37.302Z,17.33
2023-06-02T18:15:05.203Z,17.33
2023-06-02T18:17:32.639Z,17.32
2023-06-02T18:19:59.883Z,17.28
2023-06-02T18:22:27.438Z,17.25
2023-06-02T18:24:54.907Z,17.22
2023-06-02T18:27:22.179Z,17.19
2023-06-02T18:29:49.487Z,17.17
2023-06-02T18:32:19.088Z,17.16
2023-06-02T18:34:46.657Z,17.15
2023-06-02T18:37:13.973Z,17.14
2023-06-02T18:39:41.325Z,17.14
2023-06-02T18:42:08.666Z,17.14
2023-06-02T18:44:36.064Z,17.15
2023-06-02T18:47:03.546Z,17.12
2023-06-02T18:49:31.085Z,17.11
2023-06-02T18:52:00.661Z,17.09
2023-06-02T18:54:28.174Z,17.07
2023-06-02T18:56:57.462Z,17.06
2023-06-02T18:59:24.822Z,17.04
2023-06-02T19:01:52.319Z,17.04
2023-06-02T19:04:19.643Z,17.03
2023-06-02T19:06:47.210Z,17.04
2023-06-02T19:09:14.605Z,17.04
2023-06-02T19:11:42.122Z,17.05
2023-06-02T19:14:10.239Z,17.06
2023-06-02T19:16:37.752Z,17.06
2023-06-02T19:19:05.099Z,17.06
2023-06-02T19:21:32.998Z,17.03
2023-06-02T19:24:00.520Z,17.02
2023-06-02T19:26:28.248Z,17.00
2023-06-02T19:28:55.625Z,16.98
2023-06-02T19:31:23.028Z,16.97
2023-06-02T19:33:50.532Z,16.97
2023-06-02T19:36:17.923Z,16.96
2023-06-02T19:38:45.843Z,16.95
2023-06-02T19:41:13.071Z,16.95
2023-06-02T19:43:40.795Z,16.95
2023-06-02T19:46:08.502Z,16.96
2023-06-02T19:48:37.112Z,16.97
2023-06-02T19:51:04.747Z,17.00
2023-06-02T19:53:32.086Z,17.02
2023-06-02T19:55:59.347Z,17.04
2023-06-02T19:58:27.083Z,17.06
2023-06-02T20:00:54.742Z,17.06
2023-06-02T20:03:22.211Z,17.05
2023-06-02T20:05:49.799Z,17.05
2023-06-02T20:08:17.629Z,17.03
2023-06-02T20:10:44.952Z,17.03
2023-06-02T20:13:12.227Z,17.04
2023-06-02T20:15:40.125Z,17.06
2023-06-02T20:18:08.985Z,17.07
2023-06-02T20:20:36.649Z,17.08
2023-06-02T20:23:04.364Z,17.10
2023-06-02T20:25:31.859Z,17.11
2023-06-02T20:27:59.180Z,17.11
2023-06-02T20:30:26.696Z,17.10
2023-06-02T20:32:54.131Z,17.08
2023-06-02T20:35:21.684Z,17.07
2023-06-02T20:37:48.968Z,17.06
2023-06-02T20:40:16.850Z,17.05
2023-06-02T20:42:44.277Z,17.06
2023-06-02T20:45:14.575Z,17.07
2023-06-02T20:47:42.367Z,17.08
2023-06-02T20:50:10.300Z,17.08
2023-06-02T20:52:37.677Z,17.09
2023-06-02T20:55:05.507Z,17.08
2023-06-02T20:57:32.845Z,17.06
2023-06-02T21:00:00.176Z,17.03
2023-06-02T21:02:27.920Z,17.01
2023-06-02T21:04:55.343Z,16.96
2023-06-02T21:07:22.716Z,16.90
2023-06-02T21:09:49.966Z,16.85
2023-06-02T21:12:17.280Z,16.82
2023-06-02T21:14:44.713Z,16.78
2023-06-02T21:17:12.049Z,16.72
2023-06-02T21:19:39.434Z,16.69
2023-06-02T21:22:07.056Z,16.67
2023-06-02T21:24:34.355Z,16.64
2023-06-02T21:27:01.736Z,16.63
2023-06-02T21:29:29.200Z,16.63
2023-06-02T21:31:56.601Z,16.63
2023-06-02T21:34:24.327Z,16.64
2023-06-02T21:36:51.671Z,16.64
2023-06-02T21:39:18.955Z,16.63
2023-06-02T21:41:48.979Z,16.63
2023-06-02T21:44:16.809Z,16.61
2023-06-02T21:46:44.157Z,16.57
2023-06-02T21:49:11.682Z,16.54
2023-06-02T21:51:39.124Z,16.52
2023-06-02T21:54:06.419Z,16.49
2023-06-02T21:56:35.953Z,16.46
2023-06-02T21:59:04.907Z,16.44
2023-06-02T22:01:32.388Z,16.43
2023-06-02T22:03:59.993Z,16.41
2023-06-02T22:06:27.822Z,16.38
2023-06-02T22:08:55.112Z,16.31
2023-06-02T22:11:24.061Z,16.23
2023-06-02T22:13:51.776Z,16.18
2023-06-02T22:16:19.174Z,16.11
2023-06-02T22:18:46.486Z,16.02
2023-06-02T22:21:14.032Z,15.97
2023-06-02T22:23:41.374Z,15.92
2023-06-02T22:26:08.697Z,15.87
2023-06-02T22:28:36.046Z,15.84
2023-06-02T22:31:03.689Z,15.83
2023-06-02T22:33:31.194Z,15.81
2023-06-02T22:35:58.716Z,15.79
2023-06-02T22:38:26.161Z,15.73
2023-06-02T22:40:53.426Z,15.69
2023-06-02T22:43:21.011Z,15.66
2023-06-02T22:45:48.527Z,15.64
2023-06-02T22:48:16.933Z,15.63
2023-06-02T22:50:44.447Z,15.64
2023-06-02T22:53:11.859Z,15.65
2023-06-02T22:55:39.126Z,15.65
2023-06-02T22:58:06.703Z,15.65
2023-06-02T23:00:34.059Z,15.64
2023-06-02T23:03:01.430Z,15.63
2023-06-02T23:05:28.858Z,15.63
2023-06-02T23:07:56.665Z,15.61
2023-06-02T23:10:24.060Z,15.59
2023-06-02T23:12:51.378Z,15.56
2023-06-02T23:15:19.101Z,15.55
2023-06-02T23:17:46.649Z,15.54
2023-06-02T23:20:14.050Z,15.52
2023-06-02T23:22:41.391Z,15.50
2023-06-02T23:25:09.406Z,15.49
2023-06-02T23:27:36.785Z,15.45
2023-06-02T23:30:05.861Z,15.38
2023-06-02T23:32:33.944Z,15.30
2023-06-02T23:35:01.447Z,15.22
2023-06-02T23:37:29.742Z,15.16
2023-06-02T23:39:57.082Z,15.10
2023-06-02T23:42:24.496Z,14.99
2023-06-02T23:44:51.819Z,14.86
2023-06-02T23:47:19.407Z,14.71
2023-06-02T23:49:50.122Z,14.58
2023-06-02T23:52:17.468Z,14.50
2023-06-02T23:54:44.846Z,14.43
2023-06-02T23:57:12.202Z,14.36
2023-06-02T23:59:39.489Z,14.30
